Time;durP1;ratioP1;P1;durP2;ratioP2;P2;SDS_P1;SDS_P2;PMS_P1;PMS_P2;Temp;Humidity;BMP_temperature;BMP_pressure;BME280_temperature;BME280_humidity;BME280_pressure;Samples;Min_cycle;Max_cycle;Signal;HPM_P1;HPM_P2
2023/07/26 00:00:12;;;;;;;10.00;2.70;;;13.00;99.90;;;;;;5091805;28;20032;-53
2023/07/26 00:02:38;;;;;;;6.03;2.63;;;12.90;99.90;;;;;;5091196;28;20039;-53
2023/07/26 00:05:04;;;;;;;6.97;3.45;;;12.80;99.90;;;;;;5091144;28;20025;-54
2023/07/26 00:07:29;;;;;;;2.88;2.22;;;12.80;99.90;;;;;;5091393;28;20032;-53
2023/07/26 00:09:55;;;;;;;6.07;2.35;;;12.80;99.90;;;;;;5091670;28;20036;-54
2023/07/26 00:12:20;;;;;;;8.13;2.80;;;12.80;99.90;;;;;;5091193;28;20031;-54
2023/07/26 00:14:46;;;;;;;4.18;2.55;;;12.80;99.90;;;;;;5090880;28;20016;-53
2023/07/26 00:17:11;;;;;;;5.15;2.72;;;12.80;99.90;;;;;;5091451;28;20024;-54
2023/07/26 00:19:37;;;;;;;2.90;2.40;;;12.80;99.90;;;;;;5090998;28;20016;-52
2023/07/26 00:22:03;;;;;;;5.68;2.33;;;12.80;99.90;;;;;;5072708;28;20460;-52
2023/07/26 00:24:28;;;;;;;9.27;2.92;;;12.80;99.90;;;;;;5090555;28;20038;-50
2023/07/26 00:26:54;;;;;;;8.23;4.05;;;12.70;99.90;;;;;;5091355;28;20024;-54
2023/07/26 00:29:19;;;;;;;6.93;2.90;;;12.70;99.90;;;;;;5090887;28;20396;-54
2023/07/26 00:31:45;;;;;;;4.43;2.47;;;12.70;99.90;;;;;;5090827;28;20035;-54
2023/07/26 00:34:10;;;;;;;3.75;2.42;;;12.70;99.90;;;;;;5072131;28;20024;-54
2023/07/26 00:36:36;;;;;;;10.73;2.72;;;12.70;99.90;;;;;;5090719;28;20420;-54
2023/07/26 00:39:03;;;;;;;8.15;2.55;;;12.70;99.90;;;;;;5090821;28;20016;-54
2023/07/26 00:41:28;;;;;;;5.28;2.55;;;12.70;99.90;;;;;;5072391;28;20028;-54
2023/07/26 00:43:54;;;;;;;9.32;2.50;;;12.60;99.90;;;;;;5090959;28;20103;-54
2023/07/26 00:46:20;;;;;;;7.03;2.45;;;12.60;99.90;;;;;;5072221;28;20051;-55
2023/07/26 00:48:46;;;;;;;7.57;2.55;;;12.60;99.90;;;;;;5090404;28;20020;-54
2023/07/26 00:51:12;;;;;;;7.03;2.80;;;12.60;99.90;;;;;;5090330;28;20542;-54
2023/07/26 00:53:37;;;;;;;7.63;2.95;;;12.60;99.90;;;;;;5090276;28;20111;-54
2023/07/26 00:56:03;;;;;;;7.45;2.50;;;12.60;99.90;;;;;;5090791;28;20035;-54
2023/07/26 00:58:29;;;;;;;6.97;3.00;;;12.60;99.90;;;;;;5090013;28;20240;-54
2023/07/26 01:00:55;;;;;;;8.48;2.65;;;12.60;99.90;;;;;;5090215;28;20442;-53
2023/07/26 01:03:21;;;;;;;6.28;3.00;;;12.60;99.90;;;;;;5089930;28;20414;-53
2023/07/26 01:06:06;;;;;;;8.60;2.60;;;12.60;99.90;;;;;;5089729;28;20046;-53
2023/07/26 01:08:56;;;;;;;7.35;3.03;;;12.60;99.90;;;;;;5089575;28;20020;-52
2023/07/26 01:11:31;;;;;;;8.23;2.40;;;12.50;99.90;;;;;;5089879;28;20039;-52
2023/07/26 01:14:16;;;;;;;6.68;2.65;;;12.50;99.90;;;;;;5089905;28;20419;-53
2023/07/26 01:16:43;;;;;;;8.68;3.03;;;12.40;99.90;;;;;;5090290;28;20016;-53
2023/07/26 01:19:08;;;;;;;6.28;2.58;;;12.40;99.90;;;;;;5090107;28;20163;-53
2023/07/26 01:21:34;;;;;;;4.30;2.10;;;12.40;99.90;;;;;;5089991;28;20430;-53
2023/07/26 01:23:59;;;;;;;7.45;2.70;;;12.40;99.90;;;;;;5089458;28;20032;-53
2023/07/26 01:26:25;;;;;;;7.63;2.80;;;12.40;99.90;;;;;;5090163;28;20133;-53
2023/07/26 01:28:50;;;;;;;7.75;3.83;;;12.40;99.90;;;;;;5090153;28;20439;-53
2023/07/26 01:31:18;;;;;;;5.82;2.80;;;12.40;99.90;;;;;;5090022;28;20060;-53
2023/07/26 01:33:48;;;;;;;5.60;3.03;;;12.40;99.90;;;;;;5089314;28;20028;-53
2023/07/26 01:36:14;;;;;;;11.55;2.95;;;12.30;99.90;;;;;;5089775;28;20028;-53
2023/07/26 01:38:40;;;;;;;7.90;2.45;;;12.30;99.90;;;;;;5089234;28;20042;-52
2023/07/26 01:41:06;;;;;;;5.75;2.35;;;12.30;99.90;;;;;;5089412;28;20381;-53
2023/07/26 01:43:32;;;;;;;6.07;2.30;;;12.30;99.90;;;;;;5088954;28;20099;-53
2023/07/26 01:45:57;;;;;;;7.28;2.33;;;12.20;99.90;;;;;;5089411;28;20020;-53
2023/07/26 01:48:23;;;;;;;7.07;2.97;;;12.20;99.90;;;;;;5089256;28;20484;-51
2023/07/26 01:50:48;;;;;;;4.70;2.67;;;12.20;99.90;;;;;;5089364;28;20039;-53
2023/07/26 01:53:14;;;;;;;8.95;2.47;;;12.30;99.90;;;;;;5071357;28;20521;-52
2023/07/26 01:55:39;;;;;;;8.73;3.20;;;12.30;99.90;;;;;;5071419;28;20020;-52
2023/07/26 01:58:05;;;;;;;9.57;2.50;;;12.30;99.90;;;;;;5089619;28;20008;-52
2023/07/26 02:00:30;;;;;;;4.20;2.63;;;12.30;99.90;;;;;;5070952;28;20021;-53
2023/07/26 02:02:56;;;;;;;5.22;2.78;;;12.30;99.90;;;;;;5089238;28;20032;-54
2023/07/26 02:05:21;;;;;;;9.05;3.97;;;12.30;99.90;;;;;;5089488;28;20078;-54
2023/07/26 02:07:47;;;;;;;6.70;2.55;;;12.30;99.90;;;;;;5089622;28;20544;-53
2023/07/26 02:10:12;;;;;;;6.30;3.03;;;12.30;99.90;;;;;;5088987;28;20121;-54
2023/07/26 02:12:38;;;;;;;5.97;3.40;;;12.30;99.90;;;;;;5088722;28;20027;-52
2023/07/26 02:15:05;;;;;;;4.40;2.45;;;12.40;99.90;;;;;;5088939;28;20235;-53
2023/07/26 02:17:30;;;;;;;9.65;3.40;;;12.40;99.90;;;;;;5088455;28;20028;-54
2023/07/26 02:19:56;;;;;;;5.75;3.30;;;12.40;99.90;;;;;;5088898;28;20148;-54
2023/07/26 02:22:21;;;;;;;6.82;2.78;;;12.50;99.90;;;;;;5088855;28;20107;-53
2023/07/26 02:24:47;;;;;;;8.50;2.70;;;12.50;99.90;;;;;;5088583;28;20024;-52
2023/07/26 02:27:12;;;;;;;7.10;2.63;;;12.50;99.90;;;;;;5070744;28;20385;-53
2023/07/26 02:29:38;;;;;;;7.70;3.35;;;12.60;99.90;;;;;;5088387;28;20111;-53
2023/07/26 02:32:04;;;;;;;5.10;2.60;;;12.60;99.90;;;;;;5070230;28;20085;-53
2023/07/26 02:34:30;;;;;;;6.85;2.90;;;12.60;99.90;;;;;;5088208;28;20042;-54
2023/07/26 02:36:55;;;;;;;8.80;3.35;;;12.50;99.90;;;;;;5088890;28;20321;-52
2023/07/26 02:39:21;;;;;;;8.07;3.03;;;12.50;99.90;;;;;;5089268;28;20017;-52
2023/07/26 02:41:46;;;;;;;7.88;2.42;;;12.50;99.90;;;;;;5088486;28;20106;-54
2023/07/26 02:44:12;;;;;;;7.97;2.85;;;12.50;99.90;;;;;;5088309;28;20024;-54
2023/07/26 02:46:37;;;;;;;10.57;2.72;;;12.50;99.90;;;;;;5088478;28;20081;-54
2023/07/26 02:49:03;;;;;;;8.70;2.97;;;12.50;99.90;;;;;;5088658;28;20070;-54
2023/07/26 02:51:28;;;;;;;4.13;2.55;;;12.50;99.90;;;;;;5088400;28;20458;-54
2023/07/26 02:53:54;;;;;;;6.55;2.67;;;12.50;99.90;;;;;;5088008;28;20063;-54
2023/07/26 02:56:19;;;;;;;4.82;2.40;;;12.50;99.90;;;;;;5088463;28;20043;-54
2023/07/26 02:58:45;;;;;;;6.07;2.85;;;12.50;99.90;;;;;;5070201;28;20024;-55
2023/07/26 03:01:10;;;;;;;8.30;2.83;;;12.50;99.90;;;;;;5088803;28;20054;-54
2023/07/26 03:03:36;;;;;;;7.60;3.13;;;12.40;99.90;;;;;;5087843;28;20050;-55
2023/07/26 03:06:01;;;;;;;7.93;2.53;;;12.40;99.90;;;;;;5088476;28;20020;-54
2023/07/26 03:08:27;;;;;;;6.18;2.28;;;12.50;99.90;;;;;;5088160;28;20036;-54
2023/07/26 03:10:53;;;;;;;4.47;2.78;;;12.40;99.90;;;;;;5088585;28;20040;-54
2023/07/26 03:13:18;;;;;;;6.70;2.75;;;12.40;99.90;;;;;;5069872;28;20024;-54
2023/07/26 03:15:45;;;;;;;5.13;2.80;;;12.40;99.90;;;;;;5088152;28;20712;-54
2023/07/26 03:18:10;;;;;;;4.85;2.80;;;12.40;99.90;;;;;;5088445;28;20053;-54
2023/07/26 03:20:36;;;;;;;7.45;3.00;;;12.40;99.90;;;;;;5070322;28;20021;-54
2023/07/26 03:23:01;;;;;;;4.95;3.15;;;12.40;99.90;;;;;;5069945;28;20540;-54
2023/07/26 03:25:27;;;;;;;5.03;2.65;;;12.40;99.90;;;;;;5096845;28;20028;-54
2023/07/26 03:27:53;;;;;;;6.90;2.85;;;12.50;99.90;;;;;;5088316;28;20030;-53
2023/07/26 03:30:18;;;;;;;6.63;2.65;;;12.50;99.90;;;;;;5073879;28;20244;-54
2023/07/26 03:32:44;;;;;;;5.53;2.72;;;12.50;99.90;;;;;;5092039;28;20032;-54
2023/07/26 03:35:09;;;;;;;7.43;3.22;;;12.50;99.90;;;;;;5091840;28;20043;-54
2023/07/26 03:37:35;;;;;;;6.15;3.05;;;12.50;99.90;;;;;;5091985;28;20048;-53
2023/07/26 03:40:00;;;;;;;8.10;3.20;;;12.50;99.90;;;;;;5073998;28;20334;-53
2023/07/26 03:42:26;;;;;;;8.25;2.80;;;12.60;99.90;;;;;;5091730;28;20040;-54
2023/07/26 03:44:51;;;;;;;5.43;3.00;;;12.60;99.90;;;;;;5091222;28;20031;-52
2023/07/26 03:47:17;;;;;;;4.40;2.40;;;12.60;99.90;;;;;;5092068;28;20035;-53
2023/07/26 03:49:42;;;;;;;4.78;2.63;;;12.70;99.90;;;;;;5091721;28;20028;-53
2023/07/26 03:52:08;;;;;;;3.50;2.55;;;12.70;99.90;;;;;;5091098;28;20031;-52
2023/07/26 03:54:33;;;;;;;6.75;2.95;;;12.70;99.90;;;;;;5091362;28;20028;-50
2023/07/26 03:56:59;;;;;;;9.77;2.70;;;12.70;99.90;;;;;;5093740;28;20047;-52
2023/07/26 03:59:24;;;;;;;3.80;2.40;;;12.70;99.90;;;;;;5092730;28;20061;-51
2023/07/26 04:01:50;;;;;;;9.40;2.80;;;12.70;99.90;;;;;;5093725;28;20069;-53
2023/07/26 04:04:15;;;;;;;5.68;3.08;;;12.80;99.90;;;;;;5091276;28;20358;-52
2023/07/26 04:06:41;;;;;;;3.78;2.50;;;12.80;99.90;;;;;;5091395;28;20028;-53
2023/07/26 04:09:06;;;;;;;6.35;2.78;;;12.80;99.90;;;;;;5091272;28;20524;-52
2023/07/26 04:11:32;;;;;;;5.97;3.00;;;12.90;99.90;;;;;;5091354;28;20020;-54
2023/07/26 04:13:57;;;;;;;4.78;2.92;;;12.80;99.90;;;;;;5090958;28;20020;-53
2023/07/26 04:16:23;;;;;;;5.72;2.85;;;12.80;99.90;;;;;;5091275;28;20074;-54
2023/07/26 04:18:49;;;;;;;8.30;2.90;;;12.80;99.90;;;;;;5091061;28;20437;-52
2023/07/26 04:21:17;;;;;;;5.13;2.60;;;12.90;99.90;;;;;;5091034;28;20024;-51
2023/07/26 04:23:44;;;;;;;7.85;3.15;;;12.90;99.90;;;;;;5090451;28;20097;-51
2023/07/26 04:26:10;;;;;;;7.78;2.67;;;12.90;99.90;;;;;;5073012;28;20047;-53
2023/07/26 04:28:36;;;;;;;5.47;2.65;;;13.00;99.90;;;;;;5090823;28;20048;-53
2023/07/26 04:31:02;;;;;;;7.57;2.70;;;13.00;99.90;;;;;;5090663;28;20048;-53
2023/07/26 04:33:28;;;;;;;4.70;2.35;;;13.10;99.90;;;;;;5090445;28;20397;-54
2023/07/26 04:35:54;;;;;;;4.70;2.30;;;13.20;99.90;;;;;;5091159;28;20025;-54
2023/07/26 04:38:19;;;;;;;6.30;2.47;;;13.20;99.90;;;;;;5072518;28;20507;-54
2023/07/26 04:40:47;;;;;;;5.22;2.55;;;13.30;99.90;;;;;;5089996;28;20031;-53
2023/07/26 04:43:16;;;;;;;6.00;2.58;;;13.30;99.90;;;;;;5090330;28;20081;-54
2023/07/26 04:45:52;;;;;;;4.53;2.30;;;13.30;99.90;;;;;;5090340;28;20031;-54
2023/07/26 04:48:19;;;;;;;2.92;2.15;;;13.40;99.90;;;;;;5072499;28;20153;-54
2023/07/26 04:50:47;;;;;;;4.75;2.40;;;13.50;99.90;;;;;;5090535;28;20048;-53
2023/07/26 04:53:13;;;;;;;7.20;2.70;;;13.50;99.90;;;;;;5090018;28;20030;-54
2023/07/26 04:55:50;;;;;;;5.65;2.13;;;13.50;99.90;;;;;;5090224;28;20103;-54
2023/07/26 04:58:15;;;;;;;7.53;2.72;;;13.50;99.90;;;;;;5090150;28;20500;-54
2023/07/26 05:00:41;;;;;;;7.05;2.38;;;13.50;99.90;;;;;;5090412;28;20028;-54
2023/07/26 05:03:09;;;;;;;5.07;2.03;;;13.50;99.90;;;;;;5090155;28;20066;-54
2023/07/26 05:05:35;;;;;;;6.38;2.90;;;13.50;99.90;;;;;;5090433;28;20031;-53
2023/07/26 05:08:01;;;;;;;4.90;2.63;;;13.60;99.90;;;;;;5090293;28;20020;-53
2023/07/26 05:10:27;;;;;;;10.93;2.67;;;13.50;99.90;;;;;;5090238;28;20046;-53
2023/07/26 05:12:52;;;;;;;4.50;2.50;;;13.60;99.90;;;;;;5088975;28;20051;-52
2023/07/26 05:15:18;;;;;;;6.55;2.50;;;13.60;99.90;;;;;;5071660;28;20240;-53
2023/07/26 05:17:44;;;;;;;8.88;2.88;;;13.60;99.90;;;;;;5071526;28;20403;-53
2023/07/26 05:20:11;;;;;;;6.47;2.42;;;13.60;99.90;;;;;;5090235;28;20024;-53
2023/07/26 05:22:36;;;;;;;5.45;2.80;;;13.70;99.90;;;;;;5089977;28;20028;-53
2023/07/26 05:25:02;;;;;;;8.40;4.30;;;13.80;99.90;;;;;;5089792;28;20028;-53
2023/07/26 05:27:28;;;;;;;4.80;2.97;;;13.80;99.90;;;;;;5090265;28;20121;-53
2023/07/26 05:29:53;;;;;;;7.40;2.70;;;13.80;99.90;;;;;;5089549;28;20068;-52
2023/07/26 05:32:19;;;;;;;8.55;2.97;;;13.80;99.90;;;;;;5089420;28;20519;-53
2023/07/26 05:34:45;;;;;;;11.27;3.15;;;13.80;99.90;;;;;;5089134;28;20024;-53
2023/07/26 05:37:11;;;;;;;4.65;2.30;;;13.80;99.90;;;;;;5089532;28;20024;-53
2023/07/26 05:39:36;;;;;;;4.28;2.65;;;13.90;99.90;;;;;;5089164;28;20036;-53
2023/07/26 05:42:02;;;;;;;8.48;2.45;;;13.90;99.90;;;;;;5089090;28;20542;-53
2023/07/26 05:44:27;;;;;;;6.03;3.00;;;14.00;99.90;;;;;;5089621;28;20028;-52
2023/07/26 05:46:53;;;;;;;5.82;2.70;;;14.00;99.90;;;;;;5089461;28;20027;-53
2023/07/26 05:49:18;;;;;;;5.63;2.47;;;14.10;99.90;;;;;;5089470;28;20082;-53
2023/07/26 05:51:44;;;;;;;6.03;3.08;;;14.20;99.90;;;;;;5070196;28;20089;-53
2023/07/26 05:54:09;;;;;;;8.43;2.83;;;14.10;99.90;;;;;;5089052;28;20103;-55
2023/07/26 05:56:35;;;;;;;6.13;2.95;;;14.20;99.90;;;;;;5089277;28;20097;-55
2023/07/26 05:59:00;;;;;;;11.38;3.65;;;14.20;99.90;;;;;;5089761;28;20016;-55
2023/07/26 06:01:26;;;;;;;9.85;2.88;;;14.20;99.90;;;;;;5089521;28;20253;-55
2023/07/26 06:03:52;;;;;;;4.40;2.65;;;14.30;99.90;;;;;;5088887;28;20107;-55
2023/07/26 06:06:17;;;;;;;10.90;2.65;;;14.40;99.90;;;;;;5071174;28;20024;-55
2023/07/26 06:08:43;;;;;;;6.07;2.67;;;14.50;99.90;;;;;;5089216;28;20024;-55
2023/07/26 06:11:08;;;;;;;7.97;2.70;;;14.60;99.90;;;;;;5088856;28;20016;-55
2023/07/26 06:13:34;;;;;;;5.85;2.78;;;14.70;99.90;;;;;;5088722;28;20201;-47
2023/07/26 06:15:59;;;;;;;5.50;2.63;;;14.80;99.90;;;;;;5088791;28;20227;-47
2023/07/26 06:18:25;;;;;;;3.97;2.42;;;14.90;99.90;;;;;;5088938;28;20024;-48
2023/07/26 06:20:50;;;;;;;4.68;2.30;;;15.10;99.90;;;;;;5088879;28;20055;-46
2023/07/26 06:23:16;;;;;;;2.90;2.17;;;15.10;99.90;;;;;;5088417;28;20028;-47
2023/07/26 06:25:41;;;;;;;10.27;2.78;;;15.20;99.90;;;;;;5070565;28;20028;-48
2023/07/26 06:28:07;;;;;;;12.73;3.20;;;15.20;99.90;;;;;;5088773;28;20047;-45
2023/07/26 06:30:32;;;;;;;5.53;2.30;;;15.20;99.90;;;;;;5088413;28;20020;-47
2023/07/26 06:32:58;;;;;;;8.85;2.28;;;15.20;99.90;;;;;;5088329;28;20020;-47
2023/07/26 06:35:23;;;;;;;7.13;2.42;;;15.20;99.90;;;;;;5070632;28;20020;-47
2023/07/26 06:37:49;;;;;;;7.25;2.55;;;15.20;99.90;;;;;;5088836;28;20468;-52
2023/07/26 06:40:14;;;;;;;7.70;2.15;;;15.20;99.90;;;;;;5070406;28;20024;-47
2023/07/26 06:42:40;;;;;;;7.07;2.75;;;15.20;99.90;;;;;;5088228;28;20028;-47
2023/07/26 06:45:06;;;;;;;6.18;2.63;;;15.20;99.90;;;;;;5088356;28;20016;-47
2023/07/26 06:47:32;;;;;;;9.73;2.55;;;15.30;99.90;;;;;;5088522;28;20028;-46
2023/07/26 06:49:57;;;;;;;7.45;2.40;;;15.30;99.90;;;;;;5088098;28;20020;-47
2023/07/26 06:52:23;;;;;;;4.60;2.70;;;15.30;99.90;;;;;;5088053;28;20021;-47
2023/07/26 06:54:48;;;;;;;4.97;2.35;;;15.30;99.90;;;;;;5087949;28;20021;-47
2023/07/26 06:57:14;;;;;;;10.70;2.95;;;15.30;99.90;;;;;;5088423;28;20028;-46
2023/07/26 06:59:39;;;;;;;5.07;2.25;;;15.40;99.90;;;;;;5088169;28;20031;-47
2023/07/26 07:02:05;;;;;;;7.47;2.83;;;15.50;99.90;;;;;;5088118;28;20028;-45
2023/07/26 07:04:32;;;;;;;4.50;2.38;;;15.60;99.90;;;;;;5087999;28;20377;-46
2023/07/26 07:06:58;;;;;;;5.00;2.63;;;15.60;99.90;;;;;;5070244;28;20481;-46
2023/07/26 07:09:24;;;;;;;5.72;2.80;;;15.60;99.90;;;;;;5088067;28;20108;-47
2023/07/26 07:11:50;;;;;;;7.38;2.40;;;15.70;99.90;;;;;;5087863;28;20047;-46
2023/07/26 07:14:15;;;;;;;3.70;2.13;;;15.80;99.90;;;;;;5087963;28;20021;-46
2023/07/26 07:16:41;;;;;;;3.85;2.15;;;16.00;99.90;;;;;;5088249;28;20024;-47
2023/07/26 07:19:06;;;;;;;4.63;2.13;;;16.10;99.90;;;;;;5088406;28;20012;-48
2023/07/26 07:21:32;;;;;;;6.13;2.47;;;16.20;99.90;;;;;;5088340;28;20032;-47
2023/07/26 07:23:57;;;;;;;5.43;2.15;;;16.30;99.90;;;;;;5087677;28;20381;-46
2023/07/26 07:26:23;;;;;;;5.82;2.72;;;16.40;99.90;;;;;;5088439;28;20039;-47
2023/07/26 07:28:49;;;;;;;4.32;2.15;;;16.60;99.90;;;;;;5087915;28;20023;-48
2023/07/26 07:31:14;;;;;;;4.43;2.15;;;16.70;99.90;;;;;;5088246;28;20063;-47
2023/07/26 07:33:40;;;;;;;5.25;2.50;;;16.70;99.90;;;;;;5087374;28;20020;-46
2023/07/26 07:36:06;;;;;;;3.35;1.98;;;16.70;99.90;;;;;;5088256;28;20042;-48
2023/07/26 07:38:32;;;;;;;7.30;2.33;;;16.60;99.90;;;;;;5088117;28;20497;-47
2023/07/26 07:40:57;;;;;;;4.72;2.20;;;16.80;99.90;;;;;;5088053;28;20099;-46
2023/07/26 07:43:24;;;;;;;3.40;2.10;;;17.00;99.90;;;;;;5087702;28;20055;-47
2023/07/26 07:45:49;;;;;;;5.47;2.40;;;17.00;99.90;;;;;;5087948;28;20127;-48
2023/07/26 07:48:15;;;;;;;4.72;2.13;;;17.10;99.90;;;;;;5087975;28;20028;-47
2023/07/26 07:50:41;;;;;;;4.00;2.42;;;17.20;99.90;;;;;;5087787;28;20032;-47
2023/07/26 07:53:07;;;;;;;7.70;2.38;;;17.30;99.90;;;;;;5087597;28;20065;-46
2023/07/26 07:55:36;;;;;;;6.18;2.70;;;17.30;99.90;;;;;;5088220;28;20104;-48
2023/07/26 07:58:02;;;;;;;8.23;2.58;;;17.30;99.90;;;;;;5087658;28;20055;-48
2023/07/26 08:00:27;;;;;;;3.47;2.13;;;17.20;99.90;;;;;;5087424;28;20060;-47
2023/07/26 08:02:53;;;;;;;4.13;1.92;;;17.40;99.90;;;;;;5086804;28;20056;-48
2023/07/26 08:05:18;;;;;;;5.57;2.92;;;17.80;99.90;;;;;;5090010;28;20036;-48
2023/07/26 08:07:44;;;;;;;6.78;2.17;;;17.90;99.90;;;;;;5092769;28;20032;-47
2023/07/26 08:10:09;;;;;;;3.83;1.83;;;18.00;99.90;;;;;;5100036;28;20027;-47
2023/07/26 08:12:35;;;;;;;7.65;2.00;;;18.20;99.90;;;;;;5095024;28;20405;-49
2023/07/26 08:15:01;;;;;;;5.32;2.35;;;18.50;99.90;;;;;;5087656;28;20020;-47
2023/07/26 08:17:26;;;;;;;3.85;2.20;;;18.90;99.90;;;;;;5091169;28;20095;-48
2023/07/26 08:19:52;;;;;;;3.28;1.70;;;19.20;99.90;;;;;;5091202;28;20024;-46
2023/07/26 08:22:17;;;;;;;5.18;1.50;;;19.60;99.90;;;;;;5091057;28;20032;-48
2023/07/26 08:24:43;;;;;;;5.65;1.75;;;19.50;99.90;;;;;;5090921;28;20523;-46
2023/07/26 08:27:08;;;;;;;6.43;2.08;;;19.30;99.90;;;;;;5090997;28;20048;-47
2023/07/26 08:29:34;;;;;;;3.15;1.50;;;19.30;99.90;;;;;;5091342;28;20066;-46
2023/07/26 08:31:59;;;;;;;4.82;1.80;;;19.30;99.70;;;;;;5090697;28;20051;-48
2023/07/26 08:34:25;;;;;;;2.97;1.80;;;19.20;99.40;;;;;;5090748;28;20059;-46
2023/07/26 08:36:50;;;;;;;4.97;1.40;;;19.20;99.30;;;;;;5072772;28;20016;-48
2023/07/26 08:39:16;;;;;;;3.92;1.50;;;19.50;99.80;;;;;;5090782;28;20384;-46
2023/07/26 08:41:42;;;;;;;5.93;1.65;;;19.60;99.00;;;;;;5090705;28;20024;-51
2023/07/26 08:44:09;;;;;;;3.72;1.90;;;19.70;98.70;;;;;;5072297;28;20724;-48
2023/07/26 08:46:38;;;;;;;5.00;1.60;;;19.70;98.30;;;;;;5090945;28;20395;-47
2023/07/26 08:49:05;;;;;;;1.88;1.40;;;19.50;98.10;;;;;;5090863;28;20095;-47
2023/07/26 08:51:31;;;;;;;1.85;1.40;;;19.70;98.40;;;;;;5072332;28;20274;-46
2023/07/26 08:53:58;;;;;;;5.53;1.65;;;19.80;98.20;;;;;;5090055;28;20202;-47
2023/07/26 08:56:25;;;;;;;4.88;1.75;;;19.60;98.70;;;;;;5090430;28;20038;-48
2023/07/26 08:58:51;;;;;;;4.35;1.52;;;20.00;98.10;;;;;;5096543;28;20103;-46
2023/07/26 09:01:16;;;;;;;4.63;1.65;;;20.70;96.90;;;;;;5081765;28;20095;-49
2023/07/26 09:03:42;;;;;;;2.35;1.50;;;21.00;96.50;;;;;;5097695;28;20025;-47
2023/07/26 09:06:10;;;;;;;4.35;1.70;;;20.80;95.00;;;;;;5095395;28;20020;-47
2023/07/26 09:08:36;;;;;;;4.50;2.15;;;20.80;95.50;;;;;;5089010;28;20027;-46
2023/07/26 09:11:20;;;;;;;5.03;1.35;;;21.60;95.00;;;;;;5088904;28;20016;-46
2023/07/26 09:13:52;;;;;;;3.15;1.02;;;23.30;92.40;;;;;;5087857;28;20574;-50
2023/07/26 09:16:19;;;;;;;5.85;1.35;;;24.20;86.50;;;;;;5086865;28;20490;-47
2023/07/26 09:19:04;;;;;;;2.13;1.00;;;24.90;83.60;;;;;;5070515;28;20025;-48
2023/07/26 09:21:31;;;;;;;2.85;1.52;;;24.10;82.10;;;;;;5088386;28;20016;-47
2023/07/26 09:23:58;;;;;;;2.13;1.02;;;24.10;81.00;;;;;;5088776;28;20016;-48
2023/07/26 09:26:40;;;;;;;2.17;0.90;;;23.90;81.10;;;;;;5090096;28;20390;-50
2023/07/26 09:29:15;;;;;;;3.80;1.30;;;24.30;80.60;;;;;;5089756;28;20381;-50
2023/07/26 09:31:43;;;;;;;3.42;1.50;;;24.70;80.60;;;;;;5089608;28;20566;-49
2023/07/26 09:34:13;;;;;;;1.55;1.00;;;25.90;76.20;;;;;;5089439;28;20024;-51
2023/07/26 09:36:47;;;;;;;4.43;1.50;;;27.00;73.70;;;;;;5089925;28;20087;-50
2023/07/26 09:39:13;;;;;;;1.27;1.17;;;27.50;72.90;;;;;;5089736;28;20103;-48
2023/07/26 09:41:39;;;;;;;6.07;1.20;;;26.90;71.90;;;;;;5071734;28;20103;-49
2023/07/26 09:44:06;;;;;;;2.67;1.40;;;26.20;77.40;;;;;;5088765;28;20024;-49
2023/07/26 09:46:52;;;;;;;4.35;2.03;;;24.70;83.10;;;;;;5088839;28;20485;-51
2023/07/26 09:49:22;;;;;;;2.50;1.42;;;22.90;87.40;;;;;;5087524;28;20032;-48
2023/07/26 09:51:48;;;;;;;3.00;1.43;;;21.70;90.80;;;;;;5087748;28;20016;-47
2023/07/26 09:54:14;;;;;;;1.30;1.20;;;20.60;93.40;;;;;;5087986;28;20254;-46
2023/07/26 09:56:41;;;;;;;2.35;1.33;;;19.70;95.30;;;;;;5088145;28;20509;-49
2023/07/26 09:59:11;;;;;;;4.43;1.60;;;19.50;97.20;;;;;;5069630;28;20503;-47
2023/07/26 10:01:42;;;;;;;1.98;1.10;;;20.90;98.40;;;;;;5088247;28;20140;-50
2023/07/26 10:04:15;;;;;;;2.10;1.30;;;21.90;96.50;;;;;;5067463;28;20027;-47
2023/07/26 10:06:42;;;;;;;1.92;1.35;;;22.40;93.30;;;;;;5088269;28;20296;-47
2023/07/26 10:09:16;;;;;;;1.65;0.90;;;22.80;93.00;;;;;;5085710;28;20024;-50
2023/07/26 10:11:43;;;;;;;1.95;1.23;;;23.70;90.70;;;;;;5084921;28;20038;-48
2023/07/26 10:14:11;;;;;;;1.70;1.30;;;24.10;83.60;;;;;;5085500;28;20127;-48
2023/07/26 10:16:38;;;;;;;1.38;1.02;;;25.10;86.70;;;;;;5087605;28;20016;-49
2023/07/26 10:19:04;;;;;;;2.17;1.25;;;26.00;81.00;;;;;;5086981;28;20035;-50
2023/07/26 10:21:30;;;;;;;1.83;1.20;;;26.60;77.50;;;;;;5088033;28;20024;-50
2023/07/26 10:23:58;;;;;;;2.22;1.20;;;27.50;80.00;;;;;;5086868;28;20031;-49
2023/07/26 10:26:27;;;;;;;3.17;1.20;;;27.00;74.10;;;;;;5084996;28;20023;-49
2023/07/26 10:28:58;;;;;;;3.65;1.40;;;26.30;76.40;;;;;;5087588;28;20024;-48
2023/07/26 10:31:24;;;;;;;3.03;1.20;;;26.20;75.60;;;;;;5081665;28;20036;-49
2023/07/26 10:33:52;;;;;;;3.92;1.65;;;26.10;77.00;;;;;;5086869;28;20069;-52
2023/07/26 10:36:17;;;;;;;1.70;1.33;;;25.70;78.10;;;;;;5087198;28;20409;-49
2023/07/26 10:38:50;;;;;;;3.30;1.48;;;24.50;78.00;;;;;;5086887;28;20046;-48
2023/07/26 10:41:27;;;;;;;2.90;1.50;;;22.90;80.10;;;;;;5086330;28;20107;-47
2023/07/26 10:44:06;;;;;;;2.65;1.40;;;22.00;82.70;;;;;;5085478;28;20023;-49
2023/07/26 10:46:51;;;;;;;1.70;1.60;;;22.80;82.90;;;;;;5086029;28;20012;-50
2023/07/26 10:49:28;;;;;;;2.05;1.40;;;24.30;79.70;;;;;;5086737;28;20031;-51
2023/07/26 10:51:59;;;;;;;2.50;1.10;;;25.20;74.40;;;;;;5085797;28;20027;-51
2023/07/26 10:54:48;;;;;;;1.20;1.10;;;26.10;71.80;;;;;;5084662;28;20020;-51
2023/07/26 10:57:20;;;;;;;1.00;1.00;;;27.10;75.00;;;;;;5085984;28;20055;-51
2023/07/26 11:00:22;;;;;;;0.98;0.80;;;28.20;69.10;;;;;;5085261;28;20016;-50
2023/07/26 11:03:00;;;;;;;1.33;0.90;;;29.00;66.80;;;;;;5084732;28;20370;-49
2023/07/26 11:05:29;;;;;;;1.25;0.82;;;29.00;63.90;;;;;;5066465;28;20020;-49
2023/07/26 11:08:02;;;;;;;2.33;0.95;;;29.50;64.90;;;;;;5087449;28;20034;-49
2023/07/26 11:10:36;;;;;;;2.85;2.55;;;29.50;63.00;;;;;;5069848;28;20031;-48
2023/07/26 11:13:11;;;;;;;2.97;1.05;;;29.20;61.70;;;;;;5087368;28;20024;-49
2023/07/26 11:15:47;;;;;;;1.00;0.90;;;28.00;63.60;;;;;;5087189;28;20032;-48
2023/07/26 11:18:15;;;;;;;1.65;0.95;;;28.20;64.80;;;;;;5084965;28;20019;-50
2023/07/26 11:20:59;;;;;;;6.57;1.17;;;28.00;65.00;;;;;;5087528;28;20099;-50
2023/07/26 11:23:27;;;;;;;1.02;0.95;;;28.30;65.30;;;;;;5087823;28;20081;-48
2023/07/26 11:25:57;;;;;;;1.33;0.90;;;28.10;63.60;;;;;;5069501;28;20081;-48
2023/07/26 11:28:26;;;;;;;1.95;1.10;;;27.00;66.50;;;;;;5087835;28;20388;-48
2023/07/26 11:30:54;;;;;;;1.95;1.20;;;25.60;70.60;;;;;;5087858;28;20052;-47
2023/07/26 11:33:38;;;;;;;2.78;1.52;;;24.10;77.50;;;;;;5087127;28;20059;-47
2023/07/26 11:36:09;;;;;;;1.58;1.00;;;23.10;80.70;;;;;;5088021;28;20035;-51
2023/07/26 11:38:40;;;;;;;1.30;1.10;;;22.30;83.30;;;;;;5088031;28;20396;-48
2023/07/26 11:41:07;;;;;;;2.28;1.42;;;21.90;86.80;;;;;;5088308;28;20032;-49
2023/07/26 11:43:33;;;;;;;2.22;1.35;;;22.00;90.00;;;;;;5087940;28;20012;-50
2023/07/26 11:45:59;;;;;;;2.85;1.45;;;21.70;90.40;;;;;;5087951;28;20397;-50
2023/07/26 11:48:26;;;;;;;3.13;1.90;;;21.40;90.20;;;;;;5069690;28;20097;-49
2023/07/26 11:50:55;;;;;;;5.10;2.10;;;20.80;87.40;;;;;;5089703;28;20113;-46
2023/07/26 11:53:28;;;;;;;1.42;1.30;;;20.10;91.90;;;;;;5091713;28;20138;-49
2023/07/26 11:55:54;;;;;;;3.33;1.42;;;19.30;91.40;;;;;;5091786;28;20099;-49
2023/07/26 11:58:19;;;;;;;2.17;1.60;;;18.80;93.60;;;;;;5091397;28;20110;-48
2023/07/26 12:00:46;;;;;;;2.78;1.25;;;18.40;94.80;;;;;;5072231;28;20027;-48
2023/07/26 12:03:12;;;;;;;3.85;1.45;;;18.10;94.50;;;;;;5089533;28;20040;-48
2023/07/26 12:05:42;;;;;;;2.47;1.55;;;17.90;95.10;;;;;;5090303;28;20022;-48
2023/07/26 12:08:08;;;;;;;1.60;1.25;;;17.60;96.50;;;;;;5089942;28;20159;-48
2023/07/26 12:10:37;;;;;;;2.95;1.55;;;17.30;97.60;;;;;;5090025;28;20115;-47
2023/07/26 12:13:08;;;;;;;1.73;1.42;;;17.10;96.60;;;;;;5089756;28;20020;-47
2023/07/26 12:15:50;;;;;;;2.33;1.60;;;16.70;97.70;;;;;;5090248;28;20108;-49
2023/07/26 12:18:17;;;;;;;2.35;1.60;;;16.50;99.90;;;;;;5089624;28;20406;-48
2023/07/26 12:21:02;;;;;;;2.90;2.10;;;16.20;99.90;;;;;;5091061;28;20031;-47
2023/07/26 12:24:06;;;;;;;5.15;1.80;;;16.00;99.90;;;;;;5090921;28;20035;-49
2023/07/26 12:26:34;;;;;;;5.35;2.42;;;15.90;99.90;;;;;;5072915;28;20481;-49
2023/07/26 12:29:01;;;;;;;2.53;2.03;;;15.70;99.90;;;;;;5090775;28;20123;-47
2023/07/26 12:31:32;;;;;;;6.93;2.30;;;15.60;99.90;;;;;;5090975;28;20028;-48
2023/07/26 12:34:10;;;;;;;3.65;2.13;;;15.60;99.90;;;;;;5090055;28;20016;-46
2023/07/26 12:36:44;;;;;;;4.28;2.55;;;15.60;99.90;;;;;;5072773;28;20035;-48
2023/07/26 12:39:10;;;;;;;3.15;2.58;;;15.80;99.90;;;;;;5072570;28;20028;-49
2023/07/26 12:41:38;;;;;;;4.28;3.03;;;16.20;99.90;;;;;;5090490;28;20107;-49
2023/07/26 12:44:07;;;;;;;3.25;2.28;;;16.60;99.90;;;;;;5089925;28;20024;-48
2023/07/26 12:46:34;;;;;;;9.13;3.15;;;16.90;99.90;;;;;;5090700;28;20023;-48